createdAt,value
2022-08-16T00:01:24.591Z,18.94
2022-08-16T00:03:53.023Z,18.74
2022-08-16T00:06:20.204Z,18.67
2022-08-16T00:08:47.964Z,18.61
2022-08-16T00:11:15.536Z,18.70
2022-08-16T00:13:54.468Z,18.61
2022-08-16T00:17:06.715Z,18.50
2022-08-16T00:19:22.933Z,18.56
2022-08-16T00:21:53.288Z,18.61
2022-08-16T00:24:31.218Z,18.71
2022-08-16T00:26:59.571Z,18.55
2022-08-16T00:29:26.304Z,18.58
2022-08-16T00:31:59.642Z,18.56
2022-08-16T00:34:44.220Z,18.71
2022-08-16T00:37:18.505Z,18.63
2022-08-16T00:39:56.898Z,18.54
2022-08-16T00:42:30.595Z,18.57
2022-08-16T00:45:12.831Z,18.41
2022-08-16T00:47:49.534Z,18.64
2022-08-16T00:50:20.701Z,18.73
2022-08-16T00:52:51.135Z,18.75
2022-08-16T00:55:22.008Z,18.64
2022-08-16T00:57:59.723Z,18.64
2022-08-16T01:00:29.529Z,18.47
2022-08-16T01:02:59.706Z,18.30
2022-08-16T01:05:27.346Z,18.40
2022-08-16T01:07:54.936Z,18.24
2022-08-16T01:10:31.578Z,18.19
2022-08-16T01:13:04.509Z,18.20
2022-08-16T01:15:33.858Z,18.33
2022-08-16T01:18:01.839Z,18.36
2022-08-16T01:20:32.970Z,18.39
2022-08-16T01:23:13.712Z,18.47
2022-08-16T01:26:00.185Z,18.54
2022-08-16T01:28:38.654Z,18.51
2022-08-16T01:31:08.308Z,18.60
2022-08-16T01:33:35.801Z,18.53
2022-08-16T01:36:09.382Z,18.62
2022-08-16T01:38:46.880Z,18.53
2022-08-16T01:41:22.727Z,18.54
2022-08-16T01:43:53.905Z,18.41
2022-08-16T01:46:39.214Z,18.45
2022-08-16T01:49:43.654Z,18.56
2022-08-16T01:52:29.619Z,18.72
2022-08-16T01:54:58.232Z,18.53
2022-08-16T01:57:26.650Z,18.50
2022-08-16T01:59:54.656Z,18.39
2022-08-16T02:02:27.389Z,18.27
2022-08-16T02:04:57.495Z,18.22
2022-08-16T02:07:25.637Z,18.30
2022-08-16T02:09:58.523Z,18.51
2022-08-16T02:12:49.641Z,18.33
2022-08-16T02:15:17.135Z,18.19
2022-08-16T02:17:52.477Z,18.10
2022-08-16T02:20:20.046Z,18.10
2022-08-16T02:22:55.262Z,18.12
2022-08-16T02:25:22.242Z,17.88
2022-08-16T02:27:51.102Z,18.01
2022-08-16T02:30:35.840Z,17.88
2022-08-16T02:33:10.058Z,17.94
2022-08-16T02:35:53.749Z,17.99
2022-08-16T02:38:22.828Z,18.01
2022-08-16T02:40:51.446Z,17.89
2022-08-16T02:43:21.412Z,17.87
2022-08-16T02:45:53.542Z,17.82
2022-08-16T02:48:29.992Z,17.79
2022-08-16T02:51:06.043Z,17.72
2022-08-16T02:53:43.393Z,17.63
2022-08-16T02:56:15.140Z,17.69
2022-08-16T02:58:44.141Z,17.69
2022-08-16T03:01:24.972Z,17.66
2022-08-16T03:04:29.612Z,17.63
2022-08-16T03:06:48.307Z,17.49
2022-08-16T03:09:17.830Z,17.48
2022-08-16T03:11:44.977Z,17.51
2022-08-16T03:14:12.173Z,17.51
2022-08-16T03:16:42.288Z,17.45
2022-08-16T03:19:47.367Z,17.41
2022-08-16T03:22:28.264Z,17.41
2022-08-16T03:24:57.944Z,17.26
2022-08-16T03:27:31.381Z,17.19
2022-08-16T03:30:25.075Z,17.25
2022-08-16T03:32:52.213Z,17.25
2022-08-16T03:35:21.691Z,17.29
2022-08-16T03:38:02.600Z,17.26
2022-08-16T03:40:33.157Z,17.33
2022-08-16T03:43:19.690Z,17.18
2022-08-16T03:45:49.535Z,17.29
2022-08-16T03:48:20.888Z,17.36
2022-08-16T03:51:08.570Z,17.29
2022-08-16T03:53:37.703Z,17.23
2022-08-16T03:56:07.511Z,17.11
2022-08-16T03:58:36.940Z,17.19
2022-08-16T04:01:05.085Z,17.13
2022-08-16T04:03:32.790Z,17.05
2022-08-16T04:05:59.858Z,17.03
2022-08-16T04:08:31.134Z,16.98
2022-08-16T04:10:59.023Z,16.98
2022-08-16T04:14:01.800Z,16.92
2022-08-16T04:16:27.521Z,17.11
2022-08-16T04:19:02.807Z,16.96
2022-08-16T04:21:33.635Z,16.88
2022-08-16T04:24:02.100Z,17.05
2022-08-16T04:26:31.028Z,16.85
2022-08-16T04:29:15.165Z,16.95
2022-08-16T04:31:56.529Z,16.72
2022-08-16T04:34:30.792Z,16.87
2022-08-16T04:36:59.113Z,16.80
2022-08-16T04:39:46.079Z,16.87
2022-08-16T04:42:17.968Z,16.78
2022-08-16T04:44:54.272Z,16.81
2022-08-16T04:47:31.485Z,17.06
2022-08-16T04:50:01.272Z,16.96
2022-08-16T04:52:34.454Z,16.80
2022-08-16T04:55:08.340Z,16.78
2022-08-16T04:57:37.055Z,16.64
2022-08-16T05:00:32.575Z,16.71
2022-08-16T05:02:56.319Z,16.63
2022-08-16T05:05:25.880Z,16.70
2022-08-16T05:08:00.486Z,16.74
2022-08-16T05:10:29.592Z,16.87
2022-08-16T05:12:58.262Z,16.75
2022-08-16T05:15:25.543Z,16.89
2022-08-16T05:17:58.681Z,16.96
2022-08-16T05:20:39.130Z,17.15
2022-08-16T05:23:15.119Z,17.16
2022-08-16T05:25:48.794Z,17.13
2022-08-16T05:28:18.624Z,17.18
2022-08-16T05:30:45.986Z,17.08
2022-08-16T05:33:18.399Z,17.24
2022-08-16T05:35:54.976Z,17.27
2022-08-16T05:38:32.766Z,17.20
2022-08-16T05:41:07.049Z,17.36
2022-08-16T05:43:43.765Z,17.51
2022-08-16T05:46:29.899Z,17.55
2022-08-16T05:49:08.692Z,17.49
2022-08-16T05:51:39.821Z,17.50
2022-08-16T05:54:09.772Z,17.66
2022-08-16T05:56:39.287Z,17.81
2022-08-16T05:59:07.010Z,17.75
2022-08-16T06:01:38.955Z,18.06
2022-08-16T06:04:13.549Z,17.78
2022-08-16T06:06:56.930Z,17.83
2022-08-16T06:09:25.891Z,18.07
2022-08-16T06:12:11.427Z,18.29
2022-08-16T06:14:38.081Z,18.33
2022-08-16T06:17:07.258Z,18.45
2022-08-16T06:19:33.993Z,18.55
2022-08-16T06:22:02.626Z,18.71
2022-08-16T06:24:54.349Z,18.77
2022-08-16T06:27:15.973Z,18.80
2022-08-16T06:29:44.673Z,19.20
2022-08-16T06:32:27.807Z,19.14
2022-08-16T06:35:02.058Z,19.42
2022-08-16T06:37:36.945Z,19.58
2022-08-16T06:40:05.032Z,19.38
2022-08-16T06:42:47.740Z,19.49
2022-08-16T06:45:15.938Z,19.75
2022-08-16T06:47:54.455Z,20.06
2022-08-16T06:50:28.614Z,19.90
2022-08-16T06:53:08.609Z,20.01
2022-08-16T06:55:38.159Z,20.11
2022-08-16T06:58:08.392Z,20.08
2022-08-16T07:00:48.725Z,20.23
2022-08-16T07:03:26.841Z,20.44
2022-08-16T07:05:56.943Z,20.51
2022-08-16T07:08:27.431Z,20.40
2022-08-16T07:10:54.351Z,20.12
2022-08-16T07:13:43.962Z,20.33
2022-08-16T07:16:15.474Z,20.56
2022-08-16T07:19:01.305Z,20.69
2022-08-16T07:21:28.547Z,20.90
2022-08-16T07:24:29.469Z,20.91
2022-08-16T07:26:58.918Z,21.51
2022-08-16T07:29:31.686Z,20.98
2022-08-16T07:32:00.527Z,21.27
2022-08-16T07:34:35.393Z,21.74
2022-08-16T07:37:09.721Z,21.67
2022-08-16T07:39:43.305Z,21.74
2022-08-16T07:42:28.484Z,22.00
2022-08-16T07:44:58.112Z,21.74
2022-08-16T07:47:31.609Z,21.63
2022-08-16T07:49:59.737Z,21.72
2022-08-16T07:52:29.991Z,21.87
2022-08-16T07:54:57.715Z,21.96
2022-08-16T07:57:25.031Z,22.08
2022-08-16T07:59:52.987Z,22.62
2022-08-16T08:02:20.946Z,22.61
2022-08-16T08:04:48.499Z,22.20
2022-08-16T08:07:16.353Z,22.22
2022-08-16T08:09:43.962Z,23.62
2022-08-16T08:12:32.209Z,22.94
2022-08-16T08:14:59.645Z,23.51
2022-08-16T08:17:42.812Z,23.13
2022-08-16T08:20:13.277Z,23.27
2022-08-16T08:22:51.563Z,23.73
2022-08-16T08:25:18.490Z,23.24
2022-08-16T08:27:46.131Z,23.60
2022-08-16T08:30:51.571Z,23.59
2022-08-16T08:33:01.463Z,23.24
2022-08-16T08:35:28.620Z,22.83
2022-08-16T08:37:56.539Z,22.85
2022-08-16T08:40:27.232Z,23.06
2022-08-16T08:42:57.822Z,23.37
2022-08-16T08:45:46.882Z,23.20
2022-08-16T08:48:33.124Z,23.84
2022-08-16T08:51:03.857Z,23.76
2022-08-16T08:53:30.849Z,24.27
2022-08-16T08:55:59.276Z,24.12
2022-08-16T08:58:34.467Z,23.63
2022-08-16T09:01:03.633Z,24.04
2022-08-16T09:03:32.353Z,23.82
2022-08-16T09:06:00.578Z,23.39
2022-08-16T09:08:27.584Z,23.65
2022-08-16T09:10:59.279Z,23.96
2022-08-16T09:13:32.720Z,23.88
2022-08-16T09:15:59.648Z,23.97
2022-08-16T09:18:35.361Z,24.39
2022-08-16T09:21:07.176Z,24.63
2022-08-16T09:23:37.021Z,24.58
2022-08-16T09:26:44.399Z,24.54
2022-08-16T09:29:15.526Z,24.46
2022-08-16T09:31:41.992Z,23.87
2022-08-16T09:34:10.513Z,23.38
2022-08-16T09:36:45.958Z,23.49
2022-08-16T09:39:15.964Z,23.52
2022-08-16T09:41:43.198Z,23.28
2022-08-16T09:45:11.421Z,23.32
2022-08-16T09:47:10.719Z,24.11
2022-08-16T09:49:41.032Z,23.91
2022-08-16T09:52:09.842Z,24.56
2022-08-16T09:54:37.881Z,24.56
2022-08-16T09:57:05.117Z,24.72
2022-08-16T09:59:38.449Z,24.46
2022-08-16T10:02:26.290Z,23.93
2022-08-16T10:04:54.908Z,23.90
2022-08-16T10:07:22.111Z,23.98
2022-08-16T10:09:54.926Z,24.00
2022-08-16T10:12:43.808Z,23.90
2022-08-16T10:15:17.776Z,24.31
2022-08-16T10:18:01.035Z,24.53
2022-08-16T10:20:31.751Z,24.31
2022-08-16T10:23:05.500Z,24.68
2022-08-16T10:27:20.713Z,24.93
2022-08-16T10:28:29.109Z,24.90
2022-08-16T10:31:00.748Z,25.16
2022-08-16T10:33:33.256Z,24.80
2022-08-16T10:36:04.041Z,24.89
2022-08-16T10:38:32.986Z,25.15
2022-08-16T10:41:00.971Z,25.55
2022-08-16T10:43:30.979Z,25.18
2022-08-16T10:46:00.140Z,25.56
2022-08-16T10:48:29.294Z,25.62
2022-08-16T10:51:00.536Z,25.78
2022-08-16T10:53:32.819Z,25.78
2022-08-16T10:56:06.268Z,25.90
2022-08-16T10:58:52.374Z,25.64
2022-08-16T11:01:43.194Z,25.33
2022-08-16T11:05:04.611Z,25.90
2022-08-16T11:07:43.304Z,25.38
2022-08-16T11:09:43.904Z,25.88
2022-08-16T11:12:14.454Z,26.05
2022-08-16T11:15:11.320Z,26.26
2022-08-16T11:17:28.538Z,26.18
2022-08-16T11:20:36.775Z,26.14
2022-08-16T11:22:48.565Z,26.76
2022-08-16T11:28:09.856Z,26.84
2022-08-16T11:30:39.012Z,26.74
2022-08-16T11:33:07.144Z,26.44
2022-08-16T11:38:46.233Z,26.76
2022-08-16T11:41:09.871Z,26.62
2022-08-16T11:43:39.149Z,26.44
2022-08-16T11:46:43.656Z,26.59
2022-08-16T11:48:56.403Z,26.17
2022-08-16T11:51:23.045Z,26.32
2022-08-16T11:53:49.735Z,26.39
2022-08-16T11:56:28.575Z,26.32
2022-08-16T11:59:06.329Z,26.66
2022-08-16T12:01:44.432Z,26.18
2022-08-16T12:04:22.326Z,26.16
2022-08-16T12:06:49.956Z,26.29
2022-08-16T12:09:20.318Z,26.22
2022-08-16T12:11:47.326Z,26.48
2022-08-16T12:14:19.715Z,26.69
2022-08-16T12:16:55.551Z,26.77
2022-08-16T12:19:35.285Z,26.98
2022-08-16T12:22:05.870Z,26.93
2022-08-16T12:24:51.864Z,27.40
2022-08-16T12:27:23.015Z,27.19
2022-08-16T12:29:51.716Z,27.27
2022-08-16T12:32:35.878Z,27.31
2022-08-16T12:35:10.154Z,26.91
2022-08-16T12:37:36.847Z,26.81
2022-08-16T12:40:07.701Z,27.20
2022-08-16T12:42:54.119Z,27.41
2022-08-16T12:45:22.877Z,27.26
2022-08-16T12:48:31.477Z,27.31
2022-08-16T12:50:56.903Z,27.21
2022-08-16T12:53:24.176Z,27.16
2022-08-16T12:55:51.673Z,27.13
2022-08-16T12:58:48.614Z,27.26
2022-08-16T13:01:08.138Z,28.13
2022-08-16T13:03:40.550Z,27.62
2022-08-16T13:06:08.279Z,27.13
2022-08-16T13:08:34.888Z,27.81
2022-08-16T13:11:04.387Z,27.81
2022-08-16T13:13:33.971Z,27.39
2022-08-16T13:16:10.728Z,27.38
2022-08-16T13:18:52.573Z,27.54
2022-08-16T13:21:20.092Z,27.52
2022-08-16T13:23:55.470Z,27.84
2022-08-16T13:26:23.839Z,27.47
2022-08-16T13:28:50.647Z,27.23
2022-08-16T13:31:17.400Z,27.55
2022-08-16T13:33:44.438Z,27.54
2022-08-16T13:36:21.279Z,27.69
2022-08-16T13:39:00.277Z,27.42
2022-08-16T13:41:30.271Z,27.46
2022-08-16T13:43:59.397Z,26.93
2022-08-16T13:46:27.815Z,27.13
2022-08-16T13:48:55.914Z,27.59
2022-08-16T13:51:24.970Z,28.17
2022-08-16T13:54:02.589Z,28.30
2022-08-16T13:56:37.544Z,28.81
2022-08-16T13:59:19.511Z,28.45
2022-08-16T14:01:55.272Z,27.65
2022-08-16T14:04:31.378Z,27.82
2022-08-16T14:07:00.131Z,27.09
2022-08-16T14:09:28.514Z,27.77
2022-08-16T14:11:57.333Z,27.55
2022-08-16T14:14:29.047Z,27.58
2022-08-16T14:16:58.114Z,27.43
2022-08-16T14:19:26.392Z,27.71
2022-08-16T14:22:14.724Z,27.99
2022-08-16T14:24:47.469Z,27.96
2022-08-16T14:27:17.949Z,28.07
2022-08-16T14:29:49.300Z,29.09
2022-08-16T14:32:33.320Z,29.12
2022-08-16T14:35:07.461Z,28.25
2022-08-16T14:37:35.123Z,27.83
2022-08-16T14:40:03.389Z,27.74
2022-08-16T14:42:30.239Z,27.74
2022-08-16T14:44:57.010Z,27.66
2022-08-16T14:47:23.663Z,27.77
2022-08-16T14:49:52.370Z,27.95
2022-08-16T14:52:44.495Z,27.98
2022-08-16T14:55:11.674Z,28.00
2022-08-16T14:57:38.801Z,27.73
2022-08-16T15:00:11.139Z,28.24
2022-08-16T15:02:39.315Z,27.54
2022-08-16T15:05:09.243Z,27.98
2022-08-16T15:07:36.400Z,27.67
2022-08-16T15:10:08.624Z,27.70
2022-08-16T15:12:49.493Z,28.15
2022-08-16T15:15:20.481Z,28.33
2022-08-16T15:17:53.842Z,27.88
2022-08-16T15:20:22.593Z,27.17
2022-08-16T15:22:50.661Z,27.44
2022-08-16T15:25:29.241Z,28.32
2022-08-16T15:27:57.454Z,28.23
2022-08-16T15:30:57.013Z,27.82
2022-08-16T15:33:16.889Z,28.63
2022-08-16T15:35:45.005Z,29.02
2022-08-16T15:38:56.865Z,29.30
2022-08-16T15:41:01.195Z,29.49
2022-08-16T15:43:39.346Z,28.92
2022-08-16T15:46:35.821Z,29.07
2022-08-16T15:49:12.103Z,28.74
2022-08-16T15:51:39.286Z,28.53
2022-08-16T15:54:21.072Z,27.87
2022-08-16T15:56:55.170Z,27.60
2022-08-16T15:59:27.179Z,27.84
2022-08-16T16:01:55.941Z,28.31
2022-08-16T16:04:25.744Z,28.12
2022-08-16T16:06:54.935Z,27.70
2022-08-16T16:09:21.725Z,27.72
2022-08-16T16:12:01.418Z,27.43
2022-08-16T16:14:28.155Z,27.27
2022-08-16T16:16:55.079Z,27.78
2022-08-16T16:19:22.961Z,27.76
2022-08-16T16:21:53.990Z,27.13
2022-08-16T16:24:23.968Z,27.44
2022-08-16T16:26:57.513Z,27.30
2022-08-16T16:29:24.239Z,26.94
2022-08-16T16:31:59.753Z,26.66
2022-08-16T16:34:32.365Z,26.94
2022-08-16T16:37:02.622Z,26.57
2022-08-16T16:39:32.758Z,26.41
2022-08-16T16:41:59.997Z,26.74
2022-08-16T16:44:33.918Z,26.70
2022-08-16T16:47:03.598Z,26.49
2022-08-16T16:49:30.223Z,26.40
2022-08-16T16:52:06.618Z,26.39
2022-08-16T16:54:35.613Z,26.33
2022-08-16T16:57:02.474Z,26.12
2022-08-16T16:59:29.320Z,26.39
2022-08-16T17:02:41.258Z,26.22
2022-08-16T17:04:47.314Z,25.69
2022-08-16T17:07:14.141Z,25.78
2022-08-16T17:09:41.389Z,25.76
2022-08-16T17:12:20.074Z,25.94
2022-08-16T17:14:53.456Z,25.52
2022-08-16T17:17:20.097Z,25.46
2022-08-16T17:19:47.264Z,25.73
2022-08-16T17:22:19.867Z,25.44
2022-08-16T17:24:50.897Z,25.54
2022-08-16T17:27:32.503Z,25.64
2022-08-16T17:30:02.694Z,25.23
2022-08-16T17:32:33.984Z,25.48
2022-08-16T17:35:18.856Z,25.61
2022-08-16T17:37:51.662Z,25.41
2022-08-16T17:40:26.892Z,25.58
2022-08-16T17:43:15.457Z,25.36
2022-08-16T17:45:43.047Z,25.30
2022-08-16T17:48:09.913Z,25.29
2022-08-16T17:50:37.098Z,25.08
2022-08-16T17:53:04.688Z,25.28
2022-08-16T17:55:34.139Z,24.94
2022-08-16T17:58:00.829Z,25.09
2022-08-16T18:00:47.296Z,25.09
2022-08-16T18:03:17.268Z,24.94
2022-08-16T18:06:13.107Z,24.89
2022-08-16T18:08:41.484Z,24.90
2022-08-16T18:11:12.156Z,24.82
2022-08-16T18:13:43.059Z,24.82
2022-08-16T18:16:11.360Z,25.03
2022-08-16T18:18:38.202Z,25.17
2022-08-16T18:21:23.652Z,24.89
2022-08-16T18:23:50.280Z,24.99
2022-08-16T18:26:17.206Z,24.70
2022-08-16T18:28:43.947Z,24.77
2022-08-16T18:31:10.634Z,24.70
2022-08-16T18:33:43.390Z,24.75
2022-08-16T18:36:20.090Z,24.50
2022-08-16T18:38:47.076Z,24.63
2022-08-16T18:41:13.705Z,24.58
2022-08-16T18:44:22.256Z,24.46
2022-08-16T18:46:26.908Z,24.56
2022-08-16T18:48:53.516Z,24.46
2022-08-16T18:51:24.997Z,24.44
2022-08-16T18:53:52.267Z,24.26
2022-08-16T18:56:18.845Z,24.31
2022-08-16T18:58:45.636Z,24.43
2022-08-16T19:01:12.233Z,24.26
2022-08-16T19:03:38.796Z,24.16
2022-08-16T19:06:11.459Z,24.01
2022-08-16T19:08:42.305Z,24.06
2022-08-16T19:11:13.977Z,24.06
2022-08-16T19:13:44.233Z,23.95
2022-08-16T19:16:13.315Z,23.95
2022-08-16T19:18:40.360Z,23.78
2022-08-16T19:21:08.888Z,23.66
2022-08-16T19:23:37.609Z,23.59
2022-08-16T19:26:24.470Z,23.52
2022-08-16T19:28:58.865Z,23.38
2022-08-16T19:31:32.764Z,23.38
2022-08-16T19:33:59.451Z,23.39
2022-08-16T19:36:36.673Z,23.19
2022-08-16T19:39:13.606Z,23.27
2022-08-16T19:41:44.559Z,23.22
2022-08-16T19:44:11.449Z,23.22
2022-08-16T19:46:38.431Z,23.15
2022-08-16T19:49:05.339Z,23.10
2022-08-16T19:51:32.019Z,23.08
2022-08-16T19:53:58.807Z,23.13
2022-08-16T19:56:26.815Z,23.08
2022-08-16T20:01:46.673Z,22.89
2022-08-16T20:04:13.742Z,23.01
2022-08-16T20:06:43.074Z,22.86
2022-08-16T20:09:14.874Z,22.91
2022-08-16T20:11:46.741Z,22.92
2022-08-16T20:14:24.840Z,22.93
2022-08-16T20:16:57.729Z,22.78
2022-08-16T20:19:27.200Z,22.84
2022-08-16T20:21:54.139Z,22.71
2022-08-16T20:24:34.044Z,22.80
2022-08-16T20:27:02.445Z,22.50
2022-08-16T20:29:29.106Z,22.60
2022-08-16T20:31:56.217Z,22.52
2022-08-16T20:34:22.808Z,22.50
2022-08-16T20:36:49.413Z,22.35
2022-08-16T20:39:16.693Z,22.40
2022-08-16T20:41:43.542Z,22.20
2022-08-16T20:44:11.318Z,22.28
2022-08-16T20:46:39.061Z,22.31
2022-08-16T20:49:08.803Z,22.18
2022-08-16T20:51:46.859Z,22.18
2022-08-16T20:54:14.691Z,22.18
2022-08-16T20:56:41.394Z,22.16
2022-08-16T20:59:07.937Z,22.24
2022-08-16T21:01:45.824Z,22.21
2022-08-16T21:04:19.143Z,22.13
2022-08-16T21:06:54.385Z,21.96
2022-08-16T21:09:32.558Z,22.01
2022-08-16T21:12:01.575Z,21.96
2022-08-16T21:14:29.706Z,21.90
2022-08-16T21:16:56.561Z,22.09
2022-08-16T21:19:23.310Z,22.07
2022-08-16T21:21:50.019Z,22.04
2022-08-16T21:24:17.170Z,22.09
2022-08-16T21:26:53.050Z,22.00
2022-08-16T21:29:22.362Z,22.08
2022-08-16T21:31:51.673Z,21.99
2022-08-16T21:34:18.216Z,21.77
2022-08-16T21:36:44.942Z,21.99
2022-08-16T21:39:11.596Z,21.91
2022-08-16T21:41:40.997Z,22.01
2022-08-16T21:44:08.011Z,22.06
2022-08-16T21:46:34.656Z,22.08
2022-08-16T21:49:01.266Z,22.05
2022-08-16T21:51:27.968Z,22.10
2022-08-16T21:53:54.480Z,22.05
2022-08-16T21:56:21.047Z,22.02
2022-08-16T21:58:52.415Z,21.98
2022-08-16T22:01:21.109Z,21.95
2022-08-16T22:03:47.690Z,21.87
2022-08-16T22:06:14.799Z,21.80
2022-08-16T22:08:49.293Z,22.01
2022-08-16T22:11:21.957Z,21.75
2022-08-16T22:13:51.450Z,21.77
2022-08-16T22:16:32.052Z,21.97
2022-08-16T22:19:00.114Z,21.75
2022-08-16T22:21:27.230Z,21.82
2022-08-16T22:23:56.981Z,21.94
2022-08-16T22:26:39.620Z,21.92
2022-08-16T22:29:13.639Z,21.82
2022-08-16T22:31:42.047Z,21.84
2022-08-16T22:34:09.103Z,21.68
2022-08-16T22:36:36.413Z,21.75
2022-08-16T22:39:07.186Z,21.79
2022-08-16T22:41:35.845Z,21.84
2022-08-16T22:44:04.427Z,21.76
2022-08-16T22:46:31.799Z,21.74
2022-08-16T22:48:58.473Z,21.72
2022-08-16T22:51:26.946Z,21.70
2022-08-16T22:53:54.743Z,21.76
2022-08-16T22:56:22.479Z,21.68
2022-08-16T22:58:49.277Z,21.69
2022-08-16T23:01:18.075Z,21.75
2022-08-16T23:03:44.685Z,21.79
2022-08-16T23:06:12.373Z,21.73
2022-08-16T23:08:41.334Z,21.67
2022-08-16T23:11:12.508Z,21.64
2022-08-16T23:13:50.070Z,21.59
2022-08-16T23:16:21.989Z,21.59
2022-08-16T23:18:49.557Z,21.58
2022-08-16T23:21:18.143Z,21.52
2022-08-16T23:23:46.713Z,21.63
2022-08-16T23:26:46.919Z,21.60
2022-08-16T23:29:04.443Z,21.70
2022-08-16T23:31:32.619Z,21.68
2022-08-16T23:33:59.934Z,21.60
2022-08-16T23:36:26.557Z,21.42
2022-08-16T23:38:53.233Z,21.56
2022-08-16T23:41:20.319Z,21.58
2022-08-16T23:43:47.045Z,21.58
2022-08-16T23:46:17.017Z,21.60
2022-08-16T23:49:56.135Z,21.55
2022-08-16T23:51:31.392Z,21.58
2022-08-16T23:53:57.996Z,21.53
2022-08-16T23:56:25.720Z,21.61
2022-08-16T23:58:54.411Z,21.60
